createdAt,value
2017-11-07T00:00:21.840Z,11.68
2017-11-07T00:02:50.069Z,9.68
2017-11-07T00:05:17.525Z,12.43
2017-11-07T00:07:45.005Z,11.90
2017-11-07T00:10:12.440Z,10.45
2017-11-07T00:12:39.916Z,8.50
2017-11-07T00:15:08.446Z,11.02
2017-11-07T00:17:35.909Z,10.93
2017-11-07T00:20:04.146Z,12.27
2017-11-07T00:22:35.613Z,11.60
2017-11-07T00:25:03.112Z,10.10
2017-11-07T00:27:30.553Z,10.38
2017-11-07T00:29:58.057Z,15.60
2017-11-07T00:32:25.512Z,13.13
2017-11-07T00:34:53.042Z,9.98
2017-11-07T00:37:20.504Z,11.57
2017-11-07T00:39:47.949Z,14.63
2017-11-07T00:42:15.477Z,11.98
2017-11-07T00:44:43.682Z,15.73
2017-11-07T00:47:11.981Z,12.07
2017-11-07T00:49:39.425Z,12.20
2017-11-07T00:52:07.652Z,14.48
2017-11-07T00:54:35.115Z,15.65
2017-11-07T00:57:02.540Z,12.02
2017-11-07T00:59:30.930Z,12.02
2017-11-07T01:01:58.387Z,16.15
2017-11-07T01:04:25.833Z,19.98
2017-11-07T01:06:53.288Z,12.60
2017-11-07T01:09:21.525Z,13.95
2017-11-07T01:11:49.405Z,11.45
2017-11-07T01:14:16.881Z,12.23
2017-11-07T01:16:44.335Z,11.80
2017-11-07T01:19:11.799Z,13.25
2017-11-07T01:21:42.852Z,13.70
2017-11-07T01:24:11.058Z,14.00
2017-11-07T01:26:38.530Z,13.82
2017-11-07T01:29:05.967Z,12.20
2017-11-07T01:31:33.430Z,13.23
2017-11-07T01:34:00.879Z,12.60
2017-11-07T01:36:28.319Z,12.27
2017-11-07T01:38:56.522Z,11.60
2017-11-07T01:41:23.988Z,14.00
2017-11-07T01:43:52.217Z,13.05
2017-11-07T01:46:19.677Z,14.50
2017-11-07T01:48:47.184Z,11.75
2017-11-07T01:51:14.645Z,13.13
2017-11-07T01:53:42.103Z,12.73
2017-11-07T01:56:09.568Z,14.25
2017-11-07T01:58:37.158Z,12.70
2017-11-07T02:01:04.619Z,14.35
2017-11-07T02:03:32.052Z,11.88
2017-11-07T02:05:59.512Z,14.10
2017-11-07T02:08:26.954Z,14.40
2017-11-07T02:10:54.420Z,15.20
2017-11-07T02:13:22.662Z,14.10
2017-11-07T02:15:50.109Z,14.30
2017-11-07T02:18:17.546Z,13.30
2017-11-07T02:20:45.790Z,18.98
2017-11-07T02:23:13.222Z,12.25
2017-11-07T02:25:41.291Z,13.40
2017-11-07T02:28:09.528Z,13.93
2017-11-07T02:30:37.000Z,16.65
2017-11-07T02:33:04.462Z,18.58
2017-11-07T02:35:31.909Z,13.27
2017-11-07T02:38:01.060Z,14.70
2017-11-07T02:40:28.517Z,12.27
2017-11-07T02:42:55.961Z,16.15
2017-11-07T02:45:23.450Z,11.77
2017-11-07T02:47:50.898Z,14.45
2017-11-07T02:50:18.621Z,13.50
2017-11-07T02:52:46.916Z,14.85
2017-11-07T02:55:14.380Z,19.15
2017-11-07T02:57:42.503Z,14.95
2017-11-07T03:00:09.972Z,14.87
2017-11-07T03:02:40.500Z,16.45
2017-11-07T03:05:07.936Z,16.00
2017-11-07T03:07:35.480Z,13.45
2017-11-07T03:10:02.931Z,15.20
2017-11-07T03:12:30.407Z,21.20
2017-11-07T03:14:57.855Z,16.77
2017-11-07T03:17:26.077Z,16.83
2017-11-07T03:19:54.272Z,15.70
2017-11-07T03:22:21.713Z,15.35
2017-11-07T03:24:49.932Z,17.58
2017-11-07T03:27:17.500Z,17.50
2017-11-07T03:29:44.957Z,12.18
2017-11-07T03:32:13.203Z,12.70
2017-11-07T03:34:40.678Z,14.95
2017-11-07T03:37:08.166Z,18.40
2017-11-07T03:39:35.687Z,15.85
2017-11-07T03:42:03.892Z,17.10
2017-11-07T03:44:31.387Z,13.00
2017-11-07T03:46:59.079Z,21.77
2017-11-07T03:49:26.519Z,14.63
2017-11-07T03:51:53.984Z,15.57
2017-11-07T03:54:21.412Z,17.67
2017-11-07T03:56:48.888Z,22.17
2017-11-07T03:59:16.967Z,20.62
2017-11-07T04:01:44.417Z,13.10
2017-11-07T04:04:11.891Z,11.95
2017-11-07T04:06:39.374Z,17.70
2017-11-07T04:09:06.833Z,14.73
2017-11-07T04:11:34.263Z,13.62
2017-11-07T04:14:01.720Z,13.40
2017-11-07T04:16:29.163Z,13.43
2017-11-07T04:18:56.619Z,11.07
2017-11-07T04:21:24.816Z,12.32
2017-11-07T04:23:52.272Z,14.93
2017-11-07T04:26:20.513Z,15.07
2017-11-07T04:28:47.936Z,13.52
2017-11-07T04:31:16.155Z,14.73
2017-11-07T04:33:43.728Z,14.00
2017-11-07T04:36:11.958Z,11.38
2017-11-07T04:38:39.389Z,14.85
2017-11-07T04:41:06.859Z,14.40
2017-11-07T04:43:34.297Z,13.73
2017-11-07T04:46:01.848Z,12.13
2017-11-07T04:48:29.312Z,15.20
2017-11-07T04:50:56.747Z,12.45
2017-11-07T04:53:24.706Z,15.38
2017-11-07T04:55:52.146Z,12.82
2017-11-07T04:58:19.612Z,18.20
2017-11-07T05:00:51.992Z,13.45
2017-11-07T05:03:19.572Z,13.20
2017-11-07T05:05:47.016Z,17.60
2017-11-07T05:08:15.225Z,15.00
2017-11-07T05:10:43.331Z,15.73
2017-11-07T05:13:10.828Z,14.13
2017-11-07T05:15:38.320Z,13.43
2017-11-07T05:18:06.576Z,13.05
2017-11-07T05:20:34.019Z,12.80
2017-11-07T05:23:02.254Z,11.80
2017-11-07T05:25:29.690Z,14.87
2017-11-07T05:27:57.912Z,15.40
2017-11-07T05:30:25.390Z,16.92
2017-11-07T05:32:52.865Z,15.70
2017-11-07T05:35:20.293Z,16.48
2017-11-07T05:37:47.741Z,12.43
2017-11-07T05:40:15.191Z,13.25
2017-11-07T05:42:42.648Z,13.98
2017-11-07T05:45:10.104Z,16.83
2017-11-07T05:47:39.036Z,14.30
2017-11-07T05:50:06.513Z,16.12
2017-11-07T05:52:33.988Z,13.40
2017-11-07T05:55:01.474Z,14.65
2017-11-07T05:57:28.957Z,14.73
2017-11-07T05:59:56.408Z,19.27
2017-11-07T06:02:23.838Z,15.18
2017-11-07T06:04:51.296Z,12.90
2017-11-07T06:07:18.734Z,16.98
2017-11-07T06:09:46.201Z,16.02
2017-11-07T06:12:13.652Z,15.85
2017-11-07T06:14:41.888Z,16.77
2017-11-07T06:17:09.424Z,12.82
2017-11-07T06:19:37.637Z,17.02
2017-11-07T06:22:05.103Z,16.58
2017-11-07T06:24:33.339Z,19.83
2017-11-07T06:27:00.799Z,14.07
2017-11-07T06:29:28.292Z,20.95
2017-11-07T06:31:55.744Z,18.08
2017-11-07T06:34:23.253Z,22.55
2017-11-07T06:36:50.726Z,17.90
2017-11-07T06:39:18.162Z,15.50
2017-11-07T06:41:45.678Z,17.23
2017-11-07T06:44:13.262Z,15.30
2017-11-07T06:46:40.709Z,19.15
2017-11-07T06:49:08.161Z,20.42
2017-11-07T06:51:35.612Z,15.77
2017-11-07T06:54:03.843Z,16.00
2017-11-07T06:56:31.281Z,16.55
2017-11-07T06:58:59.518Z,15.85
2017-11-07T07:01:26.983Z,17.90
2017-11-07T07:03:54.448Z,17.15
2017-11-07T07:06:21.924Z,16.58
2017-11-07T07:08:49.379Z,16.05
2017-11-07T07:11:17.599Z,17.45
2017-11-07T07:13:45.073Z,18.05
2017-11-07T07:16:12.532Z,17.42
2017-11-07T07:18:40.119Z,13.68
2017-11-07T07:21:07.594Z,14.65
2017-11-07T07:23:35.064Z,19.73
2017-11-07T07:26:04.180Z,20.30
2017-11-07T07:28:31.638Z,18.02
2017-11-07T07:30:59.213Z,13.93
2017-11-07T07:33:27.448Z,16.30
2017-11-07T07:35:54.936Z,14.98
2017-11-07T07:38:22.395Z,17.33
2017-11-07T07:40:50.376Z,16.73
2017-11-07T07:43:17.807Z,16.10
2017-11-07T07:45:46.045Z,15.10
2017-11-07T07:48:13.524Z,15.02
2017-11-07T07:50:40.990Z,17.55
2017-11-07T07:53:08.415Z,18.08
2017-11-07T07:55:40.049Z,16.17
2017-11-07T07:58:07.505Z,13.23
2017-11-07T08:00:34.947Z,16.08
2017-11-07T08:03:04.128Z,14.63
2017-11-07T08:05:31.611Z,18.25
2017-11-07T08:07:59.047Z,15.85
2017-11-07T08:10:26.549Z,13.93
2017-11-07T08:12:53.985Z,15.30
2017-11-07T08:15:21.468Z,15.30
2017-11-07T08:17:48.968Z,16.98
2017-11-07T08:20:16.424Z,14.98
2017-11-07T08:22:43.887Z,17.52
2017-11-07T08:25:11.316Z,14.25
2017-11-07T08:27:38.783Z,17.27
2017-11-07T08:30:10.456Z,18.90
2017-11-07T08:32:37.908Z,15.02
2017-11-07T08:35:05.367Z,16.73
2017-11-07T08:37:32.818Z,17.90
2017-11-07T08:40:04.923Z,14.85
2017-11-07T08:42:32.379Z,15.80
2017-11-07T08:44:59.856Z,16.23
2017-11-07T08:47:27.328Z,14.40
2017-11-07T08:49:54.771Z,16.25
2017-11-07T08:52:22.263Z,19.73
2017-11-07T08:54:50.504Z,20.40
2017-11-07T08:57:17.965Z,14.07
2017-11-07T08:59:45.415Z,17.02
2017-11-07T09:02:12.875Z,13.75
2017-11-07T09:04:41.092Z,17.40
2017-11-07T09:07:08.547Z,19.02
2017-11-07T09:09:36.746Z,16.70
2017-11-07T09:12:04.228Z,15.15
2017-11-07T09:14:32.415Z,16.90
2017-11-07T09:17:00.724Z,20.15
2017-11-07T09:19:28.200Z,15.15
2017-11-07T09:21:55.679Z,14.68
2017-11-07T09:24:23.152Z,15.80
2017-11-07T09:26:50.611Z,14.70
2017-11-07T09:29:18.044Z,15.30
2017-11-07T09:31:45.511Z,18.42
2017-11-07T09:34:12.948Z,15.02
2017-11-07T09:36:40.411Z,21.95
2017-11-07T09:39:07.869Z,16.23
2017-11-07T09:41:36.064Z,17.75
2017-11-07T09:44:03.527Z,16.73
2017-11-07T09:46:31.765Z,15.05
2017-11-07T09:48:59.228Z,19.30
2017-11-07T09:51:26.680Z,17.08
2017-11-07T09:53:54.899Z,18.95
2017-11-07T09:56:22.370Z,15.73
2017-11-07T09:58:49.828Z,15.45
2017-11-07T10:01:17.296Z,14.73
2017-11-07T10:03:44.760Z,12.45
2017-11-07T10:06:13.029Z,13.88
2017-11-07T10:08:40.500Z,13.23
2017-11-07T10:11:08.797Z,11.50
2017-11-07T10:13:36.277Z,11.50
2017-11-07T10:16:03.730Z,13.85
2017-11-07T10:18:31.191Z,12.60
2017-11-07T10:20:58.645Z,17.27
2017-11-07T10:23:26.117Z,15.63
2017-11-07T10:25:53.569Z,13.30
2017-11-07T10:28:21.815Z,10.52
2017-11-07T10:30:49.265Z,11.80
2017-11-07T10:33:16.744Z,13.38
2017-11-07T10:35:44.225Z,12.98
2017-11-07T10:38:11.892Z,13.70
2017-11-07T10:40:40.099Z,13.02
2017-11-07T10:43:07.556Z,11.60
2017-11-07T10:45:35.025Z,12.00
2017-11-07T10:48:02.540Z,11.85
2017-11-07T10:50:30.299Z,11.07
2017-11-07T10:52:57.757Z,15.13
2017-11-07T10:55:25.708Z,12.50
2017-11-07T10:57:53.201Z,12.07
2017-11-07T11:00:21.436Z,11.48
2017-11-07T11:02:49.780Z,12.37
2017-11-07T11:05:17.813Z,13.50
2017-11-07T11:07:45.278Z,15.63
2017-11-07T11:10:13.365Z,12.07
2017-11-07T11:12:40.810Z,23.15
2017-11-07T11:15:09.713Z,13.00
2017-11-07T11:17:37.168Z,15.52
2017-11-07T11:20:04.643Z,13.15
2017-11-07T11:22:32.792Z,13.52
2017-11-07T11:25:00.302Z,11.63
2017-11-07T11:27:27.761Z,11.00
2017-11-07T11:29:55.220Z,13.18
2017-11-07T11:32:22.712Z,12.45
2017-11-07T11:34:50.171Z,12.52
2017-11-07T11:37:17.648Z,12.23
2017-11-07T11:39:45.116Z,17.15
2017-11-07T11:42:13.541Z,15.02
2017-11-07T11:44:41.003Z,12.25
2017-11-07T11:47:08.434Z,13.07
2017-11-07T11:49:36.682Z,14.23
2017-11-07T11:52:04.168Z,13.85
2017-11-07T11:54:31.637Z,13.18
2017-11-07T11:56:59.157Z,13.43
2017-11-07T11:59:27.409Z,16.15
2017-11-07T12:01:54.886Z,14.13
2017-11-07T12:04:22.324Z,16.98
2017-11-07T12:06:49.784Z,18.25
2017-11-07T12:09:17.344Z,15.05
2017-11-07T12:11:45.616Z,20.83
2017-11-07T12:14:13.060Z,17.77
2017-11-07T12:16:40.532Z,12.75
2017-11-07T12:19:07.981Z,12.95
2017-11-07T12:21:36.213Z,16.80
2017-11-07T12:24:03.687Z,14.27
2017-11-07T12:26:31.244Z,13.40
2017-11-07T12:28:58.720Z,14.25
2017-11-07T12:31:26.188Z,14.30
2017-11-07T12:33:53.648Z,13.90
2017-11-07T12:36:21.957Z,14.20
2017-11-07T12:38:50.084Z,16.27
2017-11-07T12:41:17.537Z,15.10
2017-11-07T12:43:44.995Z,15.27
2017-11-07T12:46:12.438Z,16.00
2017-11-07T12:48:39.892Z,16.20
2017-11-07T12:51:19.309Z,21.23
2017-11-07T12:53:46.763Z,18.65
2017-11-07T12:56:14.204Z,15.63
2017-11-07T12:58:41.655Z,15.73
2017-11-07T13:01:09.880Z,14.63
2017-11-07T13:03:38.079Z,15.18
2017-11-07T13:06:06.309Z,13.98
2017-11-07T13:08:34.410Z,20.40
2017-11-07T13:11:01.897Z,19.10
2017-11-07T13:13:29.356Z,15.40
2017-11-07T13:15:56.836Z,18.60
2017-11-07T13:18:24.274Z,15.02
2017-11-07T13:20:51.737Z,13.80
2017-11-07T13:23:19.973Z,13.73
2017-11-07T13:25:47.417Z,13.80
2017-11-07T13:28:14.901Z,11.85
2017-11-07T13:30:42.340Z,13.05
2017-11-07T13:33:09.772Z,18.40
2017-11-07T13:35:37.318Z,14.73
2017-11-07T13:38:05.567Z,12.57
2017-11-07T13:40:33.028Z,15.13
2017-11-07T13:43:00.503Z,12.63
2017-11-07T13:45:27.959Z,12.32
2017-11-07T13:47:55.437Z,15.50
2017-11-07T13:50:22.900Z,18.70
2017-11-07T13:52:50.342Z,17.62
2017-11-07T13:55:18.541Z,14.93
2017-11-07T13:57:45.999Z,13.65
2017-11-07T14:00:14.234Z,13.13
2017-11-07T14:02:41.700Z,13.55
2017-11-07T14:05:09.183Z,14.52
2017-11-07T14:07:36.689Z,12.52
2017-11-07T14:10:04.154Z,12.30
2017-11-07T14:12:31.618Z,15.40
2017-11-07T14:14:59.082Z,18.17
2017-11-07T14:17:26.555Z,13.80
2017-11-07T14:19:54.009Z,16.67
2017-11-07T14:22:22.976Z,12.52
2017-11-07T14:24:50.853Z,11.05
2017-11-07T14:27:18.280Z,15.70
2017-11-07T14:29:45.718Z,12.10
2017-11-07T14:32:13.245Z,12.50
2017-11-07T14:34:40.729Z,12.57
2017-11-07T14:37:08.235Z,12.27
2017-11-07T14:39:35.682Z,13.73
2017-11-07T14:42:03.168Z,12.15
2017-11-07T14:44:30.612Z,14.90
2017-11-07T14:46:58.096Z,15.18
2017-11-07T14:49:25.537Z,14.38
2017-11-07T14:51:53.785Z,13.93
2017-11-07T14:54:21.239Z,14.55
2017-11-07T14:56:48.715Z,11.00
2017-11-07T14:59:16.176Z,12.77
2017-11-07T15:01:43.629Z,12.70
2017-11-07T15:04:11.850Z,16.80
2017-11-07T15:06:39.320Z,11.82
2017-11-07T15:09:06.813Z,16.95
2017-11-07T15:11:34.307Z,20.02
2017-11-07T15:14:01.799Z,13.10
2017-11-07T15:16:29.246Z,15.15
2017-11-07T15:18:56.695Z,12.40
2017-11-07T15:21:24.871Z,16.67
2017-11-07T15:23:53.109Z,16.08
2017-11-07T15:26:20.557Z,14.38
2017-11-07T15:28:48.020Z,13.00
2017-11-07T15:31:16.248Z,20.30
2017-11-07T15:33:43.717Z,14.15
2017-11-07T15:36:11.171Z,12.75
2017-11-07T15:38:38.628Z,13.20
2017-11-07T15:41:06.882Z,13.57
2017-11-07T15:43:34.343Z,12.75
2017-11-07T15:46:01.787Z,12.82
2017-11-07T15:48:29.378Z,13.18
2017-11-07T15:50:56.824Z,16.55
2017-11-07T15:53:25.090Z,11.77
2017-11-07T15:55:52.525Z,19.50
2017-11-07T15:58:19.964Z,12.43
2017-11-07T16:00:48.258Z,13.60
2017-11-07T16:03:15.676Z,16.20
2017-11-07T16:05:43.154Z,13.05
2017-11-07T16:08:10.584Z,12.68
2017-11-07T16:10:39.408Z,16.67
2017-11-07T16:13:06.869Z,11.93
2017-11-07T16:15:35.106Z,15.02
2017-11-07T16:18:02.545Z,12.32
2017-11-07T16:20:30.015Z,12.50
2017-11-07T16:22:58.228Z,12.37
2017-11-07T16:25:25.686Z,11.98
2017-11-07T16:27:53.882Z,11.05
2017-11-07T16:30:21.905Z,12.43
2017-11-07T16:32:49.385Z,15.38
2017-11-07T16:35:16.814Z,11.32
2017-11-07T16:37:45.037Z,14.15
2017-11-07T16:40:12.510Z,10.52
2017-11-07T16:42:39.973Z,13.07
2017-11-07T16:45:07.435Z,13.43
2017-11-07T16:47:34.888Z,12.73
2017-11-07T16:50:03.129Z,13.13
2017-11-07T16:52:30.568Z,13.95
2017-11-07T16:54:58.039Z,11.80
2017-11-07T16:57:26.272Z,11.15
2017-11-07T16:59:53.773Z,12.40
2017-11-07T17:02:21.228Z,12.07
2017-11-07T17:04:48.689Z,13.65
2017-11-07T17:07:16.160Z,13.73
2017-11-07T17:09:43.619Z,22.45
2017-11-07T17:12:11.104Z,13.68
2017-11-07T17:14:38.560Z,17.52
2017-11-07T17:17:05.993Z,14.38
2017-11-07T17:19:33.484Z,14.23
2017-11-07T17:22:00.948Z,18.27
2017-11-07T17:24:28.456Z,10.77
2017-11-07T17:26:56.661Z,14.35
2017-11-07T17:29:24.410Z,16.42
2017-11-07T17:31:51.865Z,14.65
2017-11-07T17:34:19.321Z,14.87
2017-11-07T17:36:46.778Z,15.73
2017-11-07T17:39:15.070Z,14.77
2017-11-07T17:41:42.570Z,12.93
2017-11-07T17:44:10.009Z,12.85
2017-11-07T17:46:37.484Z,13.88
2017-11-07T17:49:04.952Z,13.98
2017-11-07T17:51:33.188Z,15.57
2017-11-07T17:54:00.636Z,12.27
2017-11-07T17:56:28.077Z,15.00
2017-11-07T17:58:56.325Z,17.77
2017-11-07T18:01:23.800Z,13.48
2017-11-07T18:03:51.896Z,13.25
2017-11-07T18:06:19.389Z,14.27
2017-11-07T18:08:46.854Z,15.35
2017-11-07T18:11:18.369Z,15.45
2017-11-07T18:13:45.852Z,16.20
2017-11-07T18:16:13.300Z,13.55
2017-11-07T18:18:40.768Z,13.30
2017-11-07T18:21:08.236Z,15.65
2017-11-07T18:23:36.314Z,15.38
2017-11-07T18:26:03.770Z,11.02
2017-11-07T18:28:31.258Z,13.82
2017-11-07T18:30:58.737Z,16.33
2017-11-07T18:33:26.185Z,16.20
2017-11-07T18:35:53.704Z,13.48
2017-11-07T18:38:21.247Z,14.13
2017-11-07T18:40:48.721Z,13.23
2017-11-07T18:43:16.172Z,17.85
2017-11-07T18:45:44.247Z,12.77
2017-11-07T18:48:12.466Z,15.02
2017-11-07T18:50:39.908Z,14.38
2017-11-07T18:53:08.157Z,16.42
2017-11-07T18:55:35.600Z,15.30
2017-11-07T18:58:03.063Z,13.05
2017-11-07T19:00:30.496Z,15.77
2017-11-07T19:02:57.962Z,18.85
2017-11-07T19:05:25.413Z,14.20
2017-11-07T19:07:52.903Z,16.98
2017-11-07T19:10:20.369Z,14.65
2017-11-07T19:12:47.909Z,15.70
2017-11-07T19:15:15.386Z,14.25
2017-11-07T19:17:42.826Z,15.05
2017-11-07T19:20:10.901Z,15.68
2017-11-07T19:22:38.362Z,16.23
2017-11-07T19:25:05.835Z,18.67
2017-11-07T19:27:33.300Z,14.82
2017-11-07T19:30:00.736Z,17.60
2017-11-07T19:32:28.982Z,18.42
2017-11-07T19:34:56.428Z,19.83
2017-11-07T19:37:23.896Z,18.27
2017-11-07T19:39:51.347Z,17.58
2017-11-07T19:42:19.572Z,16.83
2017-11-07T19:44:47.039Z,21.02
2017-11-07T19:47:14.509Z,19.52
2017-11-07T19:49:45.977Z,19.17
2017-11-07T19:52:13.473Z,16.58
2017-11-07T19:54:40.922Z,15.07
2017-11-07T19:57:08.392Z,19.08
2017-11-07T19:59:35.889Z,18.00
2017-11-07T20:02:03.354Z,18.20
2017-11-07T20:04:30.846Z,17.42
2017-11-07T20:06:58.277Z,20.92
2017-11-07T20:09:26.725Z,20.37
2017-11-07T20:11:54.229Z,18.05
2017-11-07T20:14:21.714Z,23.00
2017-11-07T20:16:49.144Z,18.23
2017-11-07T20:19:17.465Z,19.60
2017-11-07T20:21:45.003Z,20.58
2017-11-07T20:24:12.552Z,20.50
2017-11-07T20:26:40.765Z,19.77
2017-11-07T20:29:08.236Z,20.37
2017-11-07T20:31:35.688Z,22.13
2017-11-07T20:34:03.179Z,24.20
2017-11-07T20:36:31.441Z,21.25
2017-11-07T20:38:58.942Z,21.00
2017-11-07T20:41:26.459Z,21.90
2017-11-07T20:43:53.889Z,20.12
2017-11-07T20:46:22.107Z,25.70
2017-11-07T20:48:49.617Z,19.23
2017-11-07T20:51:17.088Z,22.85
2017-11-07T20:53:44.559Z,20.05
2017-11-07T20:56:12.001Z,24.10
2017-11-07T20:58:39.487Z,22.30
2017-11-07T21:01:10.310Z,21.92
2017-11-07T21:03:38.590Z,22.23
2017-11-07T21:06:06.041Z,24.65
2017-11-07T21:08:33.507Z,22.37
2017-11-07T21:11:01.010Z,24.12
2017-11-07T21:13:28.476Z,22.87
2017-11-07T21:15:55.936Z,23.42
2017-11-07T21:18:23.436Z,23.65
2017-11-07T21:20:57.457Z,21.77
2017-11-07T21:23:24.926Z,23.70
2017-11-07T21:25:52.419Z,25.35
2017-11-07T21:28:20.655Z,23.85
2017-11-07T21:30:48.138Z,24.87
2017-11-07T21:33:18.489Z,25.45
2017-11-07T21:35:45.950Z,22.77
2017-11-07T21:38:13.459Z,24.17
2017-11-07T21:40:40.881Z,22.30
2017-11-07T21:43:08.403Z,27.27
2017-11-07T21:45:36.292Z,23.10
2017-11-07T21:48:03.754Z,20.58
2017-11-07T21:50:31.309Z,23.02
2017-11-07T21:52:58.760Z,23.33
2017-11-07T21:55:27.002Z,23.55
2017-11-07T21:57:54.444Z,25.60
2017-11-07T22:00:21.970Z,25.52
2017-11-07T22:02:49.416Z,25.08
2017-11-07T22:05:16.933Z,22.52
2017-11-07T22:07:44.390Z,24.92
2017-11-07T22:10:16.767Z,24.35
2017-11-07T22:12:44.272Z,25.55
2017-11-07T22:15:12.595Z,24.20
2017-11-07T22:17:40.063Z,23.70
2017-11-07T22:20:07.617Z,23.62
2017-11-07T22:22:41.507Z,23.62
2017-11-07T22:25:23.763Z,25.02
2017-11-07T22:27:52.004Z,23.60
2017-11-07T22:30:19.499Z,27.37
2017-11-07T22:32:46.977Z,24.60
2017-11-07T22:35:14.461Z,23.12
2017-11-07T22:37:41.895Z,22.90
2017-11-07T22:40:09.356Z,19.83
2017-11-07T22:42:36.874Z,21.37
2017-11-07T22:45:04.340Z,23.17
2017-11-07T22:47:31.820Z,24.80
2017-11-07T22:49:59.283Z,23.92
2017-11-07T22:52:26.757Z,27.27
2017-11-07T22:54:54.201Z,22.58
2017-11-07T22:57:21.760Z,26.25
2017-11-07T22:59:50.029Z,26.35
2017-11-07T23:02:17.507Z,25.48
2017-11-07T23:04:44.944Z,21.58
2017-11-07T23:07:12.412Z,22.00
2017-11-07T23:09:39.850Z,21.08
2017-11-07T23:12:08.093Z,26.17
2017-11-07T23:14:35.576Z,23.90
2017-11-07T23:17:03.543Z,23.67
2017-11-07T23:19:30.984Z,20.90
2017-11-07T23:21:58.444Z,24.02
2017-11-07T23:24:26.678Z,22.33
2017-11-07T23:26:54.131Z,21.58
2017-11-07T23:29:21.589Z,24.17
2017-11-07T23:31:49.817Z,19.62
2017-11-07T23:34:17.276Z,24.27
2017-11-07T23:36:46.414Z,22.15
2017-11-07T23:39:13.864Z,21.17
2017-11-07T23:41:41.466Z,22.15
2017-11-07T23:44:08.938Z,21.87
2017-11-07T23:46:36.397Z,20.80
2017-11-07T23:49:03.875Z,22.45
2017-11-07T23:51:34.264Z,22.35
2017-11-07T23:54:01.737Z,21.23
2017-11-07T23:56:29.198Z,21.12
2017-11-07T23:58:56.672Z,22.60
